FWKI/LLW METAR and TAF weather

Enter ICAO airport designator
Station Type Date Time Source
FWKI METAR 2022/05/23 13:00 UTC NOAA

FWKI 231300Z 21004KT 9999 SCT035 SCT090 25/14 Q1017 NOSIG


Station Type Date Time Source
FWKI Decoded METAR 2022/05/23 13:00 UTC NOAA

Lilongwe International Airport, Malawi (FWKI) 13-47S 033-46E 1229M
May 23, 2022 - 09:00 AM EDT / 2022.05.23 1300 UTC
Wind: from the SSW (210 degrees) at 5 MPH (4 KT):0
Visibility: greater than 7 mile(s):0
Sky conditions: partly cloudy
Temperature: 77 F (25 C)
Dew Point: 57 F (14 C)
Relative Humidity: 50%
Pressure (altimeter): 30.03 in. Hg (1017 hPa)
ob: FWKI 231300Z 21004KT 9999 SCT035 SCT090 25/14 Q1017 NOSIG
cycle: 13

Station Type Date Time Source
FWKI TAF 2022/05/23 12:12 UTC NOAA

TAF TAF FWKI 231000Z 2312/2418 24008KT 9999 SCT025 SCT080
BECMG 2312/2314 BKN030
BECMG 2314/2316 26004KT SCT035
FM231600 27004KT CAVOK

Example: see airport list